Montgomery, Massachusetts
Current Conditions -  °F | °C
As of 4:53 AM on Saturday 25 Oct 2014 (Local Time) from KBAF Reporting Station
Clear Clear  
Wind Chill: 45°   Ceiling: Unl
Heat Index: 48°   Visibility: 10mi
Dew Point: 40°   Wind: 7mph
Humidity: 74%   Direction: 350°N
Pressure: 29.79"   Gusts: NA
Location:  42.3047°N, 72.879°W
Report Text: KBAF 250853Z AUTO 35006KT 10SM CLR 09/04 A2979 RMK AO2 SLP089 T00890044 58002
Loading
Personal Weather Stations






























Interactive Weather Map
Tropical Storm Tracking
New forecast layout! Learn more

10-Day Weather Forecast

Advertisements
Track Severe Weather on mobile